Time;durP1;ratioP1;P1;durP2;ratioP2;P2;SDS_P1;SDS_P2;PMS_P1;PMS_P2;Temp;Humidity;BMP_temperature;BMP_pressure;BME280_temperature;BME280_humidity;BME280_pressure;Samples;Min_cycle;Max_cycle;Signal;HPM_P1;HPM_P2
2022/07/28 00:00:58;;;;;;;7.65;5.10;;;;;;;22.64;44.74;93745.53;5069158;28;20031;-80
2022/07/28 00:03:23;;;;;;;6.00;4.70;;;;;;;22.42;47.07;93728.56;5071291;28;20048;-80
2022/07/28 00:05:49;;;;;;;6.75;5.35;;;;;;;22.44;48.22;93744.44;5067295;28;20028;-80
2022/07/28 00:08:15;;;;;;;6.35;4.88;;;;;;;22.11;50.98;93748.28;5069155;28;20115;-79
2022/07/28 00:10:40;;;;;;;7.53;5.30;;;;;;;22.05;53.52;93766.06;5068596;28;20032;-80
2022/07/28 00:13:06;;;;;;;8.40;5.50;;;;;;;22.19;54.14;93783.09;5067607;28;20379;-80
2022/07/28 00:15:31;;;;;;;13.40;6.22;;;;;;;21.77;54.61;93734.34;5067634;28;20055;-80
2022/07/28 00:17:57;;;;;;;10.60;6.32;;;;;;;21.98;58.39;93788.53;5070822;28;20016;-80
2022/07/28 00:20:22;;;;;;;13.68;6.97;;;;;;;21.90;57.82;93795.09;5069208;28;20028;-79
2022/07/28 00:22:48;;;;;;;13.32;6.25;;;;;;;21.93;57.54;93752.94;5068496;28;20162;-80
2022/07/28 00:25:14;;;;;;;7.50;5.80;;;;;;;22.04;58.45;93738.25;5072208;28;20113;-80
2022/07/28 00:27:39;;;;;;;5.78;5.15;;;;;;;22.36;57.90;93762.63;5069896;28;20078;-79
2022/07/28 00:30:07;;;;;;;8.57;6.18;;;;;;;22.41;59.06;93766.88;5069580;28;20039;-79
2022/07/28 00:32:33;;;;;;;8.48;6.05;;;;;;;22.59;58.93;93783.88;5069232;28;20074;-78
2022/07/28 00:34:58;;;;;;;10.57;6.53;;;;;;;22.60;57.61;93772.66;5068373;28;20028;-80
2022/07/28 00:37:24;;;;;;;7.05;6.13;;;;;;;22.68;58.32;93770.72;5068569;28;20028;-79
2022/07/28 00:39:49;;;;;;;10.38;5.80;;;;;;;22.71;58.28;93753.66;5069033;28;20115;-78
2022/07/28 00:42:19;;;;;;;7.95;6.53;;;;;;;22.77;57.92;93757.53;5066813;28;20111;-77
2022/07/28 00:44:45;;;;;;;10.10;6.22;;;;;;;22.73;58.22;93737.78;5069133;28;20016;-80
2022/07/28 00:47:10;;;;;;;7.47;5.68;;;;;;;22.90;57.84;93750.53;5067790;28;20575;-80
2022/07/28 00:49:36;;;;;;;8.00;6.20;;;;;;;22.89;58.16;93778.81;5067517;28;20541;-80
2022/07/28 00:52:03;;;;;;;8.75;5.60;;;;;;;22.64;57.96;93786.19;5067306;28;20505;-80
2022/07/28 00:54:29;;;;;;;13.30;6.53;;;;;;;22.71;56.94;93791.63;5064552;28;20395;-80
2022/07/28 00:56:55;;;;;;;10.38;6.18;;;;;;;22.94;58.65;93800.13;5067450;28;20038;-79
2022/07/28 00:59:20;;;;;;;9.10;6.05;;;;;;;22.97;59.27;93807.47;5068700;28;20542;-80
2022/07/28 01:01:47;;;;;;;9.85;6.53;;;;;;;22.98;58.70;93803.59;5069238;28;20040;-80
2022/07/28 01:04:13;;;;;;;6.45;5.25;;;;;;;22.89;58.60;93808.66;5066750;28;20035;-80
2022/07/28 01:06:52;;;;;;;8.60;5.65;;;;;;;22.86;58.35;93797.78;5073864;28;20441;-79
2022/07/28 01:09:33;;;;;;;8.93;6.60;;;;;;;22.94;58.82;93815.59;5067382;28;20063;-80
2022/07/28 01:12:34;;;;;;;17.65;7.78;;;;;;;22.88;59.21;93817.94;5066566;28;20099;-79
2022/07/28 01:15:24;;;;;;;10.18;7.43;;;;;;;22.94;58.87;93821.03;5043907;28;20579;-80
2022/07/28 01:18:03;;;;;;;11.38;8.02;;;;;;;22.92;59.32;93821.44;5068303;28;20310;-80
2022/07/28 01:20:49;;;;;;;11.98;8.45;;;;;;;22.70;59.74;93817.94;5065648;28;20107;-80
2022/07/28 01:23:46;;;;;;;;;;;;;;;22.73;59.85;93800.16;5067074;28;20367;-80
2022/07/28 01:26:19;;;;;;;10.15;5.90;;;;;;;22.70;59.97;93793.56;5027336;28;19916;-80
2022/07/28 01:29:05;;;;;;;10.50;7.25;;;;;;;22.78;59.39;93796.25;5067739;28;20040;-80
2022/07/28 01:31:40;;;;;;;8.18;6.55;;;;;;;22.67;58.72;93775.38;5067299;28;20031;-80
2022/07/28 01:34:14;;;;;;;12.90;6.68;;;;;;;22.82;59.26;93781.53;5069060;28;20129;-79
2022/07/28 01:36:53;;;;;;;11.73;8.20;;;;;;;22.82;59.52;93759.84;5069952;28;20127;-79
2022/07/28 01:39:20;;;;;;;8.55;7.25;;;;;;;22.96;59.39;93788.88;5065561;28;20104;-80
2022/07/28 01:41:48;;;;;;;10.50;7.32;;;;;;;22.86;59.10;93789.66;5065870;28;20024;-80
2022/07/28 01:44:19;;;;;;;9.10;6.68;;;;;;;22.71;59.05;93769.94;5068268;28;20028;-80
2022/07/28 01:46:46;;;;;;;9.45;6.82;;;;;;;22.51;59.18;93753.31;5066458;28;20071;-80
2022/07/28 01:49:13;;;;;;;10.40;6.97;;;;;;;22.54;59.97;93776.91;5067201;28;20024;-81
2022/07/28 01:51:40;;;;;;;11.50;7.07;;;;;;;22.40;60.45;93768.03;5068828;28;20385;-79
2022/07/28 01:54:06;;;;;;;11.23;7.63;;;;;;;22.43;60.60;93764.56;5068084;28;20020;-79
2022/07/28 01:56:33;;;;;;;7.57;6.57;;;;;;;22.62;60.42;93783.13;5067461;28;20021;-80
2022/07/28 01:59:04;;;;;;;9.45;7.28;;;;;;;22.63;60.76;93784.66;5068247;28;20487;-80
2022/07/28 02:01:35;;;;;;;9.88;6.50;;;;;;;22.52;59.41;93757.59;5065973;28;20060;-81
2022/07/28 02:04:03;;;;;;;8.27;6.55;;;;;;;22.64;59.00;93778.06;5066626;28;20052;-80
2022/07/28 02:06:30;;;;;;;8.40;6.40;;;;;;;22.70;59.79;93787.34;5067059;28;20039;-80
2022/07/28 02:08:58;;;;;;;6.75;5.63;;;;;;;22.41;60.13;93747.91;5070864;28;20024;-79
2022/07/28 02:11:41;;;;;;;8.90;6.80;;;;;;;22.68;60.01;93789.69;5070125;28;20024;-80
2022/07/28 02:14:14;;;;;;;8.85;6.43;;;;;;;22.64;59.58;93786.19;5070892;28;20020;-80
2022/07/28 02:17:11;;;;;;;7.00;6.13;;;;;;;22.46;59.58;93794.34;5072046;28;20553;-80
2022/07/28 02:19:39;;;;;;;6.68;5.55;;;;;;;22.46;58.72;93791.66;5052858;28;20123;-79
2022/07/28 02:22:06;;;;;;;7.75;5.60;;;;;;;22.48;58.57;93789.34;5069570;28;20070;-80
2022/07/28 02:24:32;;;;;;;7.25;5.18;;;;;;;22.33;59.35;93765.34;5072881;28;20020;-80
2022/07/28 02:27:07;;;;;;;7.43;5.88;;;;;;;22.37;59.37;93787.78;5070262;28;20070;-80
2022/07/28 02:29:37;;;;;;;;;;;;;;;22.49;59.03;93799.00;5071381;28;20035;-80
2022/07/28 02:32:11;;;;;;;7.18;5.68;;;;;;;22.41;59.26;93793.97;5070744;28;20386;-76
2022/07/28 02:34:37;;;;;;;7.78;6.03;;;;;;;22.45;59.52;93797.44;5069581;28;20062;-79
2022/07/28 02:37:07;;;;;;;9.45;5.57;;;;;;;22.54;59.50;93803.25;5070943;28;20514;-78
2022/07/28 02:39:44;;;;;;;7.53;5.72;;;;;;;22.46;59.93;93782.75;5061620;28;20024;-80
2022/07/28 02:42:15;;;;;;;8.82;6.07;;;;;;;22.52;59.94;93800.16;5071043;28;20024;-81
2022/07/28 02:44:45;;;;;;;8.80;6.13;;;;;;;22.41;59.83;93773.06;5071514;28;20054;-80
2022/07/28 02:47:15;;;;;;;7.47;5.78;;;;;;;22.57;59.13;93791.66;5069801;28;20039;-80
2022/07/28 02:49:42;;;;;;;6.40;5.28;;;;;;;22.57;59.01;93784.28;5071899;28;20031;-80
2022/07/28 02:52:11;;;;;;;11.82;6.93;;;;;;;22.59;59.33;93797.44;5070464;28;20479;-80
2022/07/28 02:54:39;;;;;;;9.77;6.53;;;;;;;22.22;60.29;93787.78;5072021;28;20130;-80
2022/07/28 02:57:06;;;;;;;10.13;6.40;;;;;;;22.32;59.90;93788.19;5069429;28;20031;-80
2022/07/28 02:59:34;;;;;;;8.15;6.03;;;;;;;22.51;59.95;93809.44;5070771;28;20012;-80
2022/07/28 03:01:59;;;;;;;7.93;5.57;;;;;;;22.60;59.68;93812.53;5069314;28;20020;-79
2022/07/28 03:07:11;;;;;;;8.88;6.40;;;;;;;22.69;59.34;93821.03;5070693;28;20082;-79
2022/07/28 03:09:41;;;;;;;7.78;6.57;;;;;;;22.73;58.86;93816.41;5067571;28;20024;-80
2022/07/28 03:12:10;;;;;;;7.82;6.65;;;;;;;22.70;58.34;93815.25;5071293;28;20424;-79
2022/07/28 03:14:35;;;;;;;6.75;5.90;;;;;;;22.59;58.61;93810.97;5069345;28;20120;-79
2022/07/28 03:17:01;;;;;;;8.07;6.70;;;;;;;22.44;59.63;93793.97;5070624;28;20491;-80
2022/07/28 03:19:27;;;;;;;8.27;5.70;;;;;;;22.02;59.01;93756.81;5068585;28;20066;-80
2022/07/28 03:21:53;;;;;;;7.25;5.80;;;;;;;22.21;59.44;93791.66;5069456;28;20031;-81
2022/07/28 03:24:22;;;;;;;7.13;6.00;;;;;;;22.21;58.58;93780.81;5069823;28;20074;-81
2022/07/28 03:26:56;;;;;;;10.07;6.63;;;;;;;22.30;57.55;93800.16;5068931;28;20020;-80
2022/07/28 03:29:24;;;;;;;9.35;6.55;;;;;;;22.25;57.82;93803.25;5071469;28;20501;-80
2022/07/28 03:31:53;;;;;;;8.05;6.47;;;;;;;22.20;58.22;93794.72;5069313;28;20020;-80
2022/07/28 03:34:18;;;;;;;7.07;6.05;;;;;;;22.04;58.18;93775.38;5067623;28;20028;-80
2022/07/28 03:36:49;;;;;;;10.18;6.80;;;;;;;22.01;58.85;93779.63;5069868;28;20074;-80
2022/07/28 03:39:17;;;;;;;9.98;6.95;;;;;;;21.98;59.45;93771.50;5069068;28;20389;-80
2022/07/28 03:41:44;;;;;;;10.52;7.07;;;;;;;21.85;59.28;93754.88;5067136;28;20116;-80
2022/07/28 03:44:10;;;;;;;9.23;6.35;;;;;;;21.96;59.15;93781.94;5069864;28;20216;-80
2022/07/28 03:46:43;;;;;;;7.30;6.22;;;;;;;21.76;59.37;93757.16;5070844;28;20494;-80
2022/07/28 03:49:09;;;;;;;8.80;6.03;;;;;;;21.80;59.65;93763.38;5071653;28;20028;-79
2022/07/28 03:51:34;;;;;;;9.10;7.10;;;;;;;21.85;58.51;93757.59;5068081;28;20405;-80
2022/07/28 03:53:59;;;;;;;10.23;6.53;;;;;;;21.59;58.25;93720.03;5070242;28;20027;-79
2022/07/28 03:56:25;;;;;;;8.55;6.28;;;;;;;21.45;58.80;93726.19;5067899;28;20530;-80
2022/07/28 03:58:50;;;;;;;6.82;5.30;;;;;;;21.30;59.19;93721.88;5069772;28;20123;-80
2022/07/28 04:01:16;;;;;;;8.68;6.43;;;;;;;21.10;58.90;93707.91;5067364;28;20024;-79
2022/07/28 04:03:41;;;;;;;9.50;6.82;;;;;;;21.23;59.19;93728.03;5069090;28;20073;-80
2022/07/28 04:06:07;;;;;;;6.82;6.00;;;;;;;21.26;59.49;93715.69;5068483;28;20466;-79
2022/07/28 04:08:32;;;;;;;9.82;6.43;;;;;;;21.24;58.93;93713.38;5067916;28;20073;-80
2022/07/28 04:10:58;;;;;;;6.78;5.07;;;;;;;21.29;56.69;93704.88;5068607;28;20467;-79
2022/07/28 04:13:23;;;;;;;7.53;5.60;;;;;;;21.05;57.60;93665.03;5067840;28;20024;-80
2022/07/28 04:15:48;;;;;;;8.18;6.28;;;;;;;21.29;59.34;93704.88;5068986;28;20035;-79
2022/07/28 04:18:14;;;;;;;8.82;6.65;;;;;;;21.05;60.35;93702.09;5067929;28;20834;-80
2022/07/28 04:20:39;;;;;;;9.65;6.82;;;;;;;20.66;61.87;93715.44;5068839;28;20447;-78
2022/07/28 04:23:04;;;;;;;10.05;6.82;;;;;;;20.37;64.19;93709.88;5069296;28;20033;-79
2022/07/28 04:25:30;;;;;;;12.73;7.90;;;;;;;20.39;65.51;93737.28;5068031;28;20012;-79
2022/07/28 04:27:55;;;;;;;12.82;8.43;;;;;;;20.25;66.69;93777.69;5066962;28;20032;-79
2022/07/28 04:30:26;;;;;;;14.60;8.55;;;;;;;19.80;69.68;93778.06;5067472;28;20038;-80
2022/07/28 04:32:53;;;;;;;11.40;8.80;;;;;;;18.80;74.77;93787.72;5069093;28;20027;-80
2022/07/28 04:35:19;;;;;;;13.15;9.68;;;;;;;18.87;75.42;93814.72;5067823;28;20043;-78
2022/07/28 04:37:47;;;;;;;20.20;11.80;;;;;;;18.71;76.25;93794.50;5066524;28;20112;-79
2022/07/28 04:40:13;;;;;;;12.45;9.07;;;;;;;19.00;75.78;93825.31;5067251;28;20445;-80
2022/07/28 04:42:40;;;;;;;12.40;9.52;;;;;;;19.35;74.52;93833.84;5068491;28;20031;-80
2022/07/28 04:45:07;;;;;;;9.73;8.35;;;;;;;19.43;73.29;93819.28;5067628;28;20475;-80
2022/07/28 04:47:33;;;;;;;9.65;7.72;;;;;;;19.56;72.92;93823.28;5069754;28;20044;-80
2022/07/28 04:49:58;;;;;;;11.00;8.32;;;;;;;19.43;72.24;93840.84;5067328;28;20508;-80
2022/07/28 04:52:25;;;;;;;10.55;9.13;;;;;;;19.50;72.39;93840.97;5068467;28;20856;-80
2022/07/28 04:54:51;;;;;;;12.23;8.45;;;;;;;19.68;71.60;93838.47;5069139;28;20024;-79
2022/07/28 04:57:17;;;;;;;12.63;8.18;;;;;;;19.75;70.32;93825.03;5070651;28;20016;-79
2022/07/28 04:59:42;;;;;;;11.43;8.57;;;;;;;19.62;69.82;93835.31;5067125;28;20383;-80
2022/07/28 05:02:08;;;;;;;9.18;7.15;;;;;;;19.25;69.78;93775.16;5070149;28;20032;-80
2022/07/28 05:04:34;;;;;;;9.48;8.20;;;;;;;19.79;69.87;93798.09;5066975;28;20058;-80
2022/07/28 05:07:00;;;;;;;9.10;7.03;;;;;;;20.00;69.03;93785.56;5070826;28;20507;-80
2022/07/28 05:09:25;;;;;;;13.27;6.70;;;;;;;20.15;68.60;93794.56;5066677;28;20024;-80
2022/07/28 05:11:50;;;;;;;9.43;7.85;;;;;;;20.30;68.30;93803.56;5068797;28;20118;-80
2022/07/28 05:14:16;;;;;;;10.38;7.50;;;;;;;20.25;68.49;93798.50;5066071;28;20447;-79
2022/07/28 05:16:42;;;;;;;9.52;6.95;;;;;;;20.32;68.08;93809.38;5066221;28;20032;-80
2022/07/28 05:19:07;;;;;;;10.60;7.40;;;;;;;20.36;68.10;93821.75;5069272;28;20125;-80
2022/07/28 05:21:32;;;;;;;8.50;7.20;;;;;;;20.38;67.89;93832.97;5068783;28;20371;-80
2022/07/28 05:23:58;;;;;;;10.50;7.43;;;;;;;20.31;67.89;93807.81;5069953;28;20126;-80
2022/07/28 05:26:23;;;;;;;10.13;7.43;;;;;;;20.41;67.77;93816.00;5066256;28;20035;-77
2022/07/28 05:28:49;;;;;;;9.95;7.65;;;;;;;20.37;67.37;93817.91;5072533;28;20035;-80
2022/07/28 05:31:14;;;;;;;8.43;7.20;;;;;;;20.59;67.64;93841.22;5066764;28;20028;-79
2022/07/28 05:33:39;;;;;;;10.05;7.63;;;;;;;20.60;66.98;93850.09;5068502;28;20020;-80
2022/07/28 05:36:05;;;;;;;10.73;8.55;;;;;;;20.81;66.84;93847.56;5065717;28;20028;-80
2022/07/28 05:38:31;;;;;;;11.48;7.40;;;;;;;20.91;65.93;93814.44;5068183;28;20497;-80
2022/07/28 05:40:58;;;;;;;8.52;6.53;;;;;;;21.03;65.57;93826.84;5069577;28;20091;-80
2022/07/28 05:43:24;;;;;;;10.10;7.60;;;;;;;21.19;65.79;93846.25;5075774;28;20028;-79
2022/07/28 05:45:49;;;;;;;11.90;8.52;;;;;;;21.33;66.34;93846.31;5074068;28;20020;-80
2022/07/28 05:48:19;;;;;;;11.32;7.60;;;;;;;21.53;65.70;93854.13;5071804;28;21583;-80
2022/07/28 05:50:45;;;;;;;11.35;8.20;;;;;;;21.63;65.93;93848.00;5072329;28;20036;-80
2022/07/28 05:53:11;;;;;;;12.70;8.02;;;;;;;21.67;66.09;93838.72;5068536;28;20102;-79
2022/07/28 05:55:36;;;;;;;10.18;8.13;;;;;;;21.70;66.34;93829.88;5071690;28;20039;-79
2022/07/28 05:58:02;;;;;;;12.82;7.57;;;;;;;21.79;64.24;93829.50;5071776;28;20024;-80
2022/07/28 06:00:27;;;;;;;8.57;6.72;;;;;;;21.72;63.16;93803.19;5071748;28;20537;-78
2022/07/28 06:02:53;;;;;;;10.60;7.45;;;;;;;21.85;61.73;93827.97;5070578;28;20027;-80
2022/07/28 06:05:20;;;;;;;9.25;7.80;;;;;;;21.90;60.72;93816.75;5070970;28;20491;-80
2022/07/28 06:07:47;;;;;;;10.88;8.25;;;;;;;21.97;60.46;93814.06;5068343;28;20032;-80
2022/07/28 06:10:16;;;;;;;11.77;8.40;;;;;;;22.02;61.82;93810.19;5072174;28;20100;-80
2022/07/28 06:12:43;;;;;;;8.65;7.53;;;;;;;22.02;61.95;93799.34;5071025;28;20443;-79
2022/07/28 06:15:22;;;;;;;10.07;8.43;;;;;;;22.10;61.50;93815.22;5069144;28;20505;-80
2022/07/28 06:17:51;;;;;;;15.32;8.82;;;;;;;22.09;61.79;93821.81;5068784;28;20088;-80
2022/07/28 06:20:17;;;;;;;14.38;9.05;;;;;;;22.02;62.05;93799.34;5071640;28;20037;-80
2022/07/28 06:22:45;;;;;;;10.55;8.07;;;;;;;21.87;59.70;93806.69;5069691;28;20024;-80
2022/07/28 06:25:15;;;;;;;9.00;7.78;;;;;;;21.88;59.77;93816.38;5070253;28;20054;-80
2022/07/28 06:27:41;;;;;;;12.32;9.00;;;;;;;21.87;60.38;93822.94;5071255;28;20617;-80
2022/07/28 06:30:07;;;;;;;11.70;8.32;;;;;;;21.70;62.54;93827.16;5070782;28;20034;-79
2022/07/28 06:32:33;;;;;;;14.90;8.77;;;;;;;21.90;62.15;93841.13;5069177;28;20027;-80
2022/07/28 06:34:59;;;;;;;10.02;7.25;;;;;;;22.07;62.96;93834.97;5071180;28;20365;-80
2022/07/28 06:37:24;;;;;;;11.35;7.78;;;;;;;22.16;61.73;93827.22;5069063;28;20028;-79
2022/07/28 06:39:49;;;;;;;9.32;6.97;;;;;;;22.26;60.76;93817.59;5071369;28;20031;-79
2022/07/28 06:42:15;;;;;;;11.38;7.65;;;;;;;22.09;60.26;93816.41;5070329;28;20624;-79
2022/07/28 06:44:40;;;;;;;9.20;6.55;;;;;;;21.88;60.54;93805.53;5070624;28;20115;-79
2022/07/28 06:47:05;;;;;;;9.20;7.45;;;;;;;22.11;59.21;93818.69;5069286;28;20596;-80
2022/07/28 06:49:31;;;;;;;10.45;8.35;;;;;;;22.03;60.30;93820.63;5070455;28;20032;-78
2022/07/28 06:51:56;;;;;;;14.38;8.93;;;;;;;21.57;61.03;93817.06;5069679;28;20555;-80
2022/07/28 06:54:22;;;;;;;12.82;8.95;;;;;;;21.26;62.92;93765.16;5069459;28;20475;-80
2022/07/28 06:56:47;;;;;;;13.68;8.75;;;;;;;21.80;62.67;93802.03;5069019;28;20063;-78
2022/07/28 06:59:14;;;;;;;13.07;9.10;;;;;;;21.90;62.53;93821.41;5068509;28;20557;-81
2022/07/28 07:01:39;;;;;;;12.15;9.65;;;;;;;21.85;61.34;93830.69;5067867;28;20489;-80
2022/07/28 07:04:07;;;;;;;14.82;9.38;;;;;;;21.39;60.81;93792.63;5070190;28;20017;-80
2022/07/28 07:06:32;;;;;;;13.57;9.07;;;;;;;21.71;61.52;93836.03;5069496;28;20034;-80
2022/07/28 07:08:58;;;;;;;12.50;9.98;;;;;;;21.73;61.53;93837.22;5071882;28;20025;-81
2022/07/28 07:11:23;;;;;;;15.48;9.52;;;;;;;21.71;62.48;93834.09;5077743;28;20036;-82
2022/07/28 07:13:49;;;;;;;11.93;8.40;;;;;;;21.55;59.66;93835.63;5060856;28;20039;-82
2022/07/28 07:16:14;;;;;;;12.00;9.05;;;;;;;21.79;60.86;93824.09;5064323;28;20375;-82
2022/07/28 07:18:40;;;;;;;14.93;8.85;;;;;;;21.84;59.77;93819.06;5068129;28;20031;-81
2022/07/28 07:21:05;;;;;;;13.48;9.60;;;;;;;22.05;59.14;93829.13;5065422;28;20028;-82
2022/07/28 07:23:30;;;;;;;12.27;9.20;;;;;;;22.06;59.61;93806.31;5065885;28;20028;-81
2022/07/28 07:25:56;;;;;;;12.60;9.05;;;;;;;22.28;60.30;93813.34;5077181;28;20031;-78
2022/07/28 07:28:21;;;;;;;12.00;9.70;;;;;;;22.52;58.62;93828.03;5081820;28;20375;-79
2022/07/28 07:30:47;;;;;;;12.52;10.05;;;;;;;22.67;57.94;93826.09;5070279;28;20031;-82
2022/07/28 07:33:13;;;;;;;15.82;9.27;;;;;;;22.69;57.53;93827.25;5072819;28;20031;-81
2022/07/28 07:35:38;;;;;;;14.55;9.45;;;;;;;22.69;58.32;93815.63;5065244;28;20024;-82
2022/07/28 07:38:04;;;;;;;13.25;9.35;;;;;;;22.72;57.49;93837.31;5064224;28;20028;-81
2022/07/28 07:40:30;;;;;;;11.25;8.23;;;;;;;22.66;56.21;93843.50;5061949;28;20028;-81
2022/07/28 07:42:55;;;;;;;10.88;8.15;;;;;;;22.74;56.41;93840.41;5065313;28;20024;-81
2022/07/28 07:45:21;;;;;;;11.25;8.15;;;;;;;22.68;56.29;93852.78;5062458;28;20020;-81
2022/07/28 07:47:46;;;;;;;12.15;8.45;;;;;;;22.50;56.43;93856.69;5068944;28;20608;-81
2022/07/28 07:50:11;;;;;;;12.88;8.45;;;;;;;22.55;56.39;93840.03;5065618;28;20032;-81
2022/07/28 07:52:37;;;;;;;18.08;9.32;;;;;;;22.80;58.03;93859.00;5067514;28;20508;-81
2022/07/28 07:55:03;;;;;;;12.38;9.90;;;;;;;22.70;56.75;93838.84;5067543;28;20035;-77
2022/07/28 07:57:29;;;;;;;12.85;10.10;;;;;;;22.76;57.22;93869.06;5067813;28;20493;-81
2022/07/28 07:59:54;;;;;;;15.65;10.43;;;;;;;22.52;58.11;93846.25;5062533;28;20028;-81
2022/07/28 08:02:19;;;;;;;12.13;9.75;;;;;;;22.88;57.66;93866.75;5065943;28;20478;-81
2022/07/28 08:04:45;;;;;;;13.98;9.93;;;;;;;22.94;57.18;93865.19;5065357;28;20138;-81
2022/07/28 08:07:10;;;;;;;12.43;9.30;;;;;;;22.91;56.52;93874.13;5066715;28;20155;-80
2022/07/28 08:09:36;;;;;;;11.95;9.90;;;;;;;22.96;56.55;93876.44;5069209;28;20118;-81
2022/07/28 08:12:01;;;;;;;12.88;9.77;;;;;;;23.19;55.71;93875.22;5067713;28;20415;-81
2022/07/28 08:14:27;;;;;;;10.80;8.23;;;;;;;23.28;56.39;93872.88;5065583;28;20398;-81
2022/07/28 08:16:55;;;;;;;11.98;9.10;;;;;;;23.25;55.38;93862.81;5066749;28;20051;-81
2022/07/28 08:19:20;;;;;;;10.85;8.98;;;;;;;23.34;55.78;93863.94;5067757;28;20434;-81
2022/07/28 08:21:46;;;;;;;11.38;8.50;;;;;;;23.36;55.34;93874.41;5068222;28;20049;-81
2022/07/28 08:24:11;;;;;;;13.75;10.93;;;;;;;23.49;56.05;93864.69;5067537;28;20103;-77
2022/07/28 08:26:36;;;;;;;13.25;9.23;;;;;;;23.61;55.66;93880.56;5066437;28;20394;-81
2022/07/28 08:29:02;;;;;;;14.77;11.07;;;;;;;23.60;53.95;93873.59;5066462;28;20028;-81
2022/07/28 08:31:27;;;;;;;16.77;11.60;;;;;;;23.57;53.94;93866.97;5063898;28;20487;-81
2022/07/28 08:33:53;;;;;;;14.15;10.93;;;;;;;23.68;54.52;93891.38;5061335;28;20122;-80
2022/07/28 08:36:18;;;;;;;15.88;10.38;;;;;;;23.72;54.87;93892.13;5059127;28;20029;-80
2022/07/28 08:38:44;;;;;;;14.35;10.43;;;;;;;23.63;54.19;93891.78;5064973;28;20027;-81
2022/07/28 08:41:18;;;;;;;15.73;10.65;;;;;;;23.48;54.96;93876.69;5065388;28;20033;-81
2022/07/28 08:43:46;;;;;;;;;;;;;;;23.69;54.27;93898.38;5067450;28;20498;-82
2022/07/28 08:46:12;;;;;;;14.45;10.77;;;;;;;23.69;54.11;93895.66;5061836;28;19916;-80
2022/07/28 08:48:38;;;;;;;15.07;10.38;;;;;;;23.69;54.52;93886.72;5062292;28;20034;-81
2022/07/28 08:51:08;;;;;;;16.40;11.45;;;;;;;23.76;53.68;93909.19;5065413;28;20028;-81
2022/07/28 08:53:36;;;;;;;16.48;10.00;;;;;;;23.79;54.28;93908.41;5063890;28;20015;-79
2022/07/28 08:56:05;;;;;;;13.38;10.38;;;;;;;23.82;54.27;93907.59;5052470;28;20363;-81
2022/07/28 08:58:32;;;;;;;14.63;9.68;;;;;;;23.82;54.64;93913.03;5067262;28;20028;-81
2022/07/28 09:00:58;;;;;;;17.42;11.05;;;;;;;23.78;53.93;93895.22;5066731;28;20023;-82
2022/07/28 09:03:25;;;;;;;14.88;10.52;;;;;;;23.84;53.83;93910.72;5069345;28;20027;-80
2022/07/28 09:05:51;;;;;;;13.68;10.63;;;;;;;23.83;54.98;93911.88;5066864;28;20024;-80
2022/07/28 09:08:18;;;;;;;16.25;11.40;;;;;;;23.64;54.66;93903.41;5068795;28;20562;-81
2022/07/28 09:10:44;;;;;;;16.42;11.07;;;;;;;23.74;54.67;93910.75;5066605;28;20421;-80
2022/07/28 09:13:09;;;;;;;12.77;10.38;;;;;;;23.79;55.97;93913.84;5065836;28;20090;-81
2022/07/28 09:15:36;;;;;;;15.57;11.32;;;;;;;23.87;55.96;93911.84;5069655;28;20777;-81
2022/07/28 09:18:02;;;;;;;14.93;11.18;;;;;;;23.90;54.32;93909.16;5071243;28;20382;-81
2022/07/28 09:20:28;;;;;;;15.52;11.05;;;;;;;23.86;53.49;93905.66;5082735;27;20031;-81
2022/07/28 09:22:56;;;;;;;13.77;11.63;;;;;;;23.85;53.74;93901.41;5076923;28;20288;-80
2022/07/28 09:25:22;;;;;;;16.08;11.77;;;;;;;23.78;54.58;93895.22;5069889;28;20028;-80
2022/07/28 09:27:47;;;;;;;15.15;11.20;;;;;;;23.90;53.70;93898.28;5069025;28;20475;-81
2022/07/28 09:30:13;;;;;;;15.10;12.32;;;;;;;23.85;53.78;93879.69;5062602;28;20035;-82
2022/07/28 09:32:38;;;;;;;18.52;10.27;;;;;;;23.72;54.12;93862.25;5066963;28;20027;-81
2022/07/28 09:35:17;;;;;;;16.85;11.38;;;;;;;23.93;54.31;93894.75;5070902;28;20051;-81
2022/07/28 09:37:42;;;;;;;18.23;13.13;;;;;;;24.11;53.95;93907.47;5070369;28;20035;-81
2022/07/28 09:40:12;;;;;;;15.10;11.75;;;;;;;24.16;54.75;93901.66;5067699;28;20547;-83
2022/07/28 09:42:46;;;;;;;13.27;10.48;;;;;;;23.95;54.51;93878.81;5070940;28;20027;-81
2022/07/28 09:45:12;;;;;;;11.75;9.52;;;;;;;23.87;55.51;93877.31;5072074;28;20027;-81
2022/07/28 09:47:39;;;;;;;15.10;11.80;;;;;;;23.99;55.24;93898.63;5070066;28;20043;-81
2022/07/28 09:50:05;;;;;;;13.55;11.02;;;;;;;23.88;56.04;93883.53;5068089;28;20413;-81
2022/07/28 09:52:30;;;;;;;14.20;11.13;;;;;;;24.15;56.06;93903.59;5071924;28;20497;-81
2022/07/28 09:54:59;;;;;;;16.10;11.38;;;;;;;24.25;56.00;93905.47;5071550;28;20061;-81
2022/07/28 09:57:28;;;;;;;15.95;12.05;;;;;;;24.15;53.96;93891.97;5070524;28;20559;-82
2022/07/28 09:59:55;;;;;;;15.20;12.07;;;;;;;24.09;54.32;93909.81;5073243;28;20056;-81
2022/07/28 10:02:32;;;;;;;17.45;11.52;;;;;;;24.13;54.98;93897.00;5070433;28;20127;-81
2022/07/28 10:05:01;;;;;;;16.05;12.35;;;;;;;24.15;54.86;93906.31;5070040;28;20416;-81
2022/07/28 10:07:28;;;;;;;19.63;13.50;;;;;;;24.04;54.15;93891.22;5071494;28;20024;-81
2022/07/28 10:10:03;;;;;;;17.70;13.23;;;;;;;24.18;53.38;93877.59;5084825;28;20032;-81
2022/07/28 10:12:30;;;;;;;;;;;;;;;24.34;52.88;93900.38;5067911;28;20040;-79
2022/07/28 10:14:58;;;;;;;16.95;12.35;;;;;;;24.27;52.35;93899.66;5066134;28;19920;-81
2022/07/28 10:17:33;;;;;;;16.02;12.55;;;;;;;24.01;52.57;93849.31;5070863;28;20536;-81
2022/07/28 10:20:01;;;;;;;14.35;11.23;;;;;;;24.09;52.48;93893.53;5065601;28;20023;-78
2022/07/28 10:22:32;;;;;;;15.55;11.40;;;;;;;24.30;52.97;93899.63;5068710;28;20486;-81
2022/07/28 10:25:06;;;;;;;14.90;12.30;;;;;;;24.06;53.15;93900.50;5067687;28;20044;-81
2022/07/28 10:27:32;;;;;;;18.40;13.77;;;;;;;24.16;54.21;93893.50;5065608;28;20577;-81
2022/07/28 10:30:00;;;;;;;15.85;12.13;;;;;;;24.09;52.62;93893.53;5070544;28;20026;-82
2022/07/28 10:32:30;;;;;;;19.30;12.93;;;;;;;24.21;52.72;93902.00;5064057;28;20098;-81
2022/07/28 10:35:02;;;;;;;18.10;13.85;;;;;;;24.07;52.37;93895.84;5067356;28;20408;-80
2022/07/28 10:37:30;;;;;;;20.75;13.88;;;;;;;23.79;53.35;93892.13;5066607;28;20024;-81
2022/07/28 10:40:09;;;;;;;17.33;13.88;;;;;;;23.79;53.16;93892.13;5061904;28;20029;-80
2022/07/28 10:42:35;;;;;;;16.98;13.68;;;;;;;24.08;54.03;93897.41;5071104;28;20426;-80
2022/07/28 10:45:02;;;;;;;21.15;13.82;;;;;;;24.15;53.05;93872.94;5074511;28;20709;-80
2022/07/28 10:47:28;;;;;;;16.20;13.10;;;;;;;24.25;52.86;93870.13;5070784;28;20046;-81
2022/07/28 10:49:54;;;;;;;20.88;14.82;;;;;;;24.40;52.92;93881.69;5067884;28;20024;-80
2022/07/28 10:52:21;;;;;;;17.45;13.02;;;;;;;24.37;52.79;93860.75;5068542;28;20030;-80
2022/07/28 10:55:10;;;;;;;15.48;12.55;;;;;;;24.46;51.98;93880.09;5068117;28;20012;-81
2022/07/28 10:57:40;;;;;;;18.90;13.10;;;;;;;24.32;55.48;93863.91;5069907;28;20423;-80
2022/07/28 11:00:20;;;;;;;15.55;11.73;;;;;;;24.51;53.51;93873.47;5067050;28;20024;-81
2022/07/28 11:02:58;;;;;;;18.88;12.80;;;;;;;24.66;52.35;93866.75;5066771;28;20502;-80
2022/07/28 11:05:31;;;;;;;17.80;12.52;;;;;;;24.78;52.31;93867.03;5069735;28;20515;-81
2022/07/28 11:07:59;;;;;;;19.98;13.68;;;;;;;24.80;51.04;93856.53;5067329;28;20056;-81
2022/07/28 11:10:26;;;;;;;15.75;12.63;;;;;;;24.82;50.86;93862.38;5070592;28;20020;-81
2022/07/28 11:12:55;;;;;;;15.00;10.65;;;;;;;24.83;50.83;93858.44;5069009;28;20040;-80
2022/07/28 11:15:30;;;;;;;15.48;11.98;;;;;;;24.85;52.45;93850.66;5067874;28;20123;-80
2022/07/28 11:18:07;;;;;;;17.95;13.23;;;;;;;24.87;51.54;93844.06;5068434;28;21030;-78
2022/07/28 11:20:55;;;;;;;19.35;12.25;;;;;;;24.85;50.42;93837.06;5068894;28;20033;-81
2022/07/28 11:23:53;;;;;;;15.25;11.43;;;;;;;24.88;51.98;93819.19;5068763;28;20630;-80
2022/07/28 11:26:18;;;;;;;13.13;10.88;;;;;;;25.00;49.75;93828.78;5069179;28;20035;-81
2022/07/28 11:28:56;;;;;;;11.95;10.00;;;;;;;24.98;49.55;93829.16;5070456;28;20466;-81
2022/07/28 11:31:47;;;;;;;12.98;9.75;;;;;;;25.01;49.83;93822.94;5067578;28;20031;-81
2022/07/28 11:34:15;;;;;;;13.88;10.27;;;;;;;24.84;49.41;93781.13;5059925;28;20032;-81